Aviation Digital Data Service (ADDS)

Output produced by METARs form (0239 UTC 22 July 2017)
found at http://www.aviationweather.gov/adds/metars/
 
HEAX 220200Z 33008KT 9999 FEW020 26/18 Q1008 NOSIG
TAF HEAX 212300Z 2200/2306 33009KT 9999 SCT020
       
HEBA 220200Z 31007KT CAVOK 23/21 Q1008 NOSIG
TAF HEBA 212300Z 2200/2306 33009KT 9999 SCT020
       
HESN 220200Z 32005KT CAVOK 30/07 Q1007 NOSIG
TAF HESN 212300Z 2200/2306 35010KT CAVOK
       
HEAT 220200Z 00000KT CAVOK 26/14 Q1010 NOSIG
TAF HEAT 212300Z 2200/2306 35010G20KT CAVOK
       
HECA 220230Z 33006KT 6000 SCT025 25/23 Q1009 NOSIG
TAF COR HECA 212308Z 2200/2306 32010KT CAVOK 
     TEMPO 2200/2206 VRB03KT 6000 NSC 
     TEMPO 2203/2206 4000 BR
       
HEAR 212300Z 00000KT CAVOK 26/21 Q1008 NOSIG
TAF HEAR 212300Z 2200/2306 22008KT 9999 FEW020 
     TEMPO 2200/2206 VRB03KT 3000 BR
       
HEGN 220200Z 32012KT CAVOK 29/16 Q1006 NOSIG
TAF HEGN 212300Z 2200/2306 32012KT CAVOK
       
HELX 220200Z 00000KT CAVOK 27/18 Q1005 NOSIG
TAF HELX 212300Z 2200/2306 33010KT CAVOK
       
HEMM 220100Z 26005KT 9999 FEW020 23/20 Q1009 NOSIG
TAF HEMM 212300Z 2200/2306 32009KT 9999 FEW020
       
HEPS 220200Z 28006KT CAVOK 26/22 Q1007 NOSIG
TAF HEPS 212300Z 2200/2306 30010KT CAVOK 
     PROB40 
     TEMPO 2203/2206 VRB03KT 4000 BR NSC
       
HESH 220200Z 02007KT CAVOK 30/17 Q1005 NOSIG
TAF HESH 212300Z 2200/2306 35012KT CAVOK
       
TAF HETB 212300Z 2200/2306 35012KT CAVOK